Time;durP1;ratioP1;P1;durP2;ratioP2;P2;SDS_P1;SDS_P2;PMS_P1;PMS_P2;Temp;Humidity;BMP_temperature;BMP_pressure;BME280_temperature;BME280_humidity;BME280_pressure;Samples;Min_cycle;Max_cycle;Signal;HPM_P1;HPM_P2
2022/06/16 05:00:41;;;;;;;4.17;3.80;;;20.60;97.20;;;;;;1708201;28;20222;-68
2022/06/16 05:01:32;;;;;;;4.47;4.10;;;20.60;97.20;;;;;;1708115;28;20214;-68
2022/06/16 05:02:24;;;;;;;4.23;3.83;;;20.70;97.20;;;;;;1708178;28;20282;-68
2022/06/16 05:03:15;;;;;;;4.30;3.95;;;20.70;97.20;;;;;;1708008;28;20230;-68
2022/06/16 05:04:07;;;;;;;4.25;3.95;;;20.70;97.20;;;;;;1708026;28;20713;-68
2022/06/16 05:04:58;;;;;;;4.15;3.75;;;20.70;97.20;;;;;;1708126;28;20199;-68
2022/06/16 05:05:50;;;;;;;4.27;3.97;;;20.70;97.20;;;;;;1710603;28;20237;-68
2022/06/16 05:06:41;;;;;;;4.68;4.22;;;20.70;97.20;;;;;;1714527;28;20206;-68
2022/06/16 05:07:33;;;;;;;4.23;3.87;;;20.80;97.20;;;;;;1714679;28;20289;-68
2022/06/16 05:08:24;;;;;;;4.85;4.45;;;20.80;97.20;;;;;;1714675;28;20214;-68
2022/06/16 05:09:16;;;;;;;5.00;4.07;;;20.80;97.20;;;;;;1714693;28;20237;-68
2022/06/16 05:10:08;;;;;;;5.15;4.38;;;20.80;97.20;;;;;;1714740;28;20441;-68
2022/06/16 05:11:00;;;;;;;4.32;3.92;;;20.90;97.20;;;;;;1714715;28;20619;-68
2022/06/16 05:11:50;;;;;;;6.22;3.65;;;20.90;97.20;;;;;;1714722;28;20666;-68
2022/06/16 05:12:42;;;;;;;4.70;4.20;;;20.90;97.20;;;;;;1714942;28;20638;-68
2022/06/16 05:13:34;;;;;;;5.03;4.05;;;20.90;97.20;;;;;;1714597;28;20213;-68
2022/06/16 05:14:26;;;;;;;4.03;3.63;;;20.90;97.20;;;;;;1714755;28;20213;-68
2022/06/16 05:15:17;;;;;;;4.00;3.70;;;21.00;97.20;;;;;;1714639;28;20300;-68
2022/06/16 05:16:10;;;;;;;4.20;3.90;;;21.00;97.20;;;;;;1714686;28;20206;-68
2022/06/16 05:17:01;;;;;;;4.10;3.70;;;21.00;97.20;;;;;;1714391;28;20444;-68
2022/06/16 05:17:53;;;;;;;3.63;3.43;;;21.10;97.20;;;;;;1714634;28;20281;-68
2022/06/16 05:18:44;;;;;;;3.97;3.67;;;21.10;97.20;;;;;;1714659;28;20233;-68
2022/06/16 05:19:35;;;;;;;4.03;3.73;;;21.10;97.20;;;;;;1714671;28;20213;-68
2022/06/16 05:20:26;;;;;;;3.60;3.33;;;21.10;97.20;;;;;;1714697;28;20448;-68
2022/06/16 05:21:18;;;;;;;5.00;4.13;;;21.10;97.20;;;;;;1714644;28;20212;-68
2022/06/16 05:22:09;;;;;;;6.78;3.88;;;21.20;97.20;;;;;;1713009;28;20198;-68
2022/06/16 05:23:01;;;;;;;4.77;4.13;;;21.20;97.20;;;;;;1714133;28;20280;-68
2022/06/16 05:23:52;;;;;;;3.85;3.55;;;21.20;97.20;;;;;;1714538;28;20594;-68
2022/06/16 05:24:44;;;;;;;3.97;3.77;;;21.20;97.20;;;;;;1714750;28;20639;-68
2022/06/16 05:25:34;;;;;;;4.97;4.18;;;21.20;97.20;;;;;;1714647;28;20213;-68
2022/06/16 05:26:26;;;;;;;6.57;4.33;;;21.30;97.20;;;;;;1714586;28;20206;-68
2022/06/16 05:27:17;;;;;;;4.22;3.83;;;21.30;97.20;;;;;;1714377;28;20669;-68
2022/06/16 05:28:10;;;;;;;4.10;3.80;;;21.30;97.20;;;;;;1714526;28;20650;-68
2022/06/16 05:29:00;;;;;;;4.25;3.95;;;21.30;97.20;;;;;;1714613;28;20441;-68
2022/06/16 05:29:52;;;;;;;4.33;4.00;;;21.30;97.20;;;;;;1714610;28;20284;-68
2022/06/16 05:30:44;;;;;;;4.03;3.72;;;21.30;97.20;;;;;;1714602;28;20213;-69
2022/06/16 05:31:38;;;;;;;4.10;3.70;;;21.40;97.20;;;;;;1714630;28;20229;-68
2022/06/16 05:32:29;;;;;;;4.57;4.18;;;21.40;97.20;;;;;;1714548;28;20216;-68
2022/06/16 05:33:21;;;;;;;3.60;3.30;;;21.40;97.20;;;;;;1714629;28;20256;-68
2022/06/16 05:34:12;;;;;;;4.25;3.95;;;21.50;97.20;;;;;;1714478;28;20226;-68
2022/06/16 05:35:05;;;;;;;8.32;4.18;;;21.50;97.20;;;;;;1714642;28;20208;-68
2022/06/16 05:35:57;;;;;;;4.75;4.38;;;21.50;97.20;;;;;;1714465;28;20206;-68
2022/06/16 05:36:48;;;;;;;3.83;3.55;;;21.50;97.20;;;;;;1714326;28;20205;-68
2022/06/16 05:37:39;;;;;;;4.38;4.07;;;21.60;97.20;;;;;;1714553;28;20210;-68
2022/06/16 05:38:31;;;;;;;4.30;3.90;;;21.60;97.20;;;;;;1712856;28;20605;-68
2022/06/16 05:39:22;;;;;;;5.75;4.18;;;21.60;97.20;;;;;;1714559;28;20205;-68
2022/06/16 05:40:14;;;;;;;4.90;4.40;;;21.70;97.20;;;;;;1714559;28;20205;-68
2022/06/16 05:41:07;;;;;;;7.55;4.03;;;21.70;97.20;;;;;;1714518;28;20445;-68
2022/06/16 05:41:59;;;;;;;4.20;3.80;;;21.70;97.20;;;;;;1714472;28;20197;-68
2022/06/16 05:42:50;;;;;;;4.00;3.70;;;21.70;97.20;;;;;;1714538;28;20213;-68
2022/06/16 05:43:42;;;;;;;4.43;3.70;;;21.80;97.20;;;;;;1714381;28;20297;-68
2022/06/16 05:44:33;;;;;;;4.35;4.00;;;21.80;97.20;;;;;;1714536;28;20464;-68
2022/06/16 05:45:25;;;;;;;4.80;4.40;;;21.90;97.20;;;;;;1714512;28;20221;-68
2022/06/16 05:46:18;;;;;;;5.10;3.97;;;21.90;97.20;;;;;;1714494;28;20213;-68
2022/06/16 05:47:12;;;;;;;4.97;4.55;;;21.90;97.20;;;;;;1714129;28;20205;-68
2022/06/16 05:48:03;;;;;;;5.18;4.72;;;21.90;97.20;;;;;;1714388;28;20680;-68
2022/06/16 05:48:55;;;;;;;4.70;4.30;;;22.00;97.20;;;;;;1714587;28;20627;-68
2022/06/16 05:49:46;;;;;;;4.90;4.53;;;22.00;97.20;;;;;;1714430;28;20685;-68
2022/06/16 05:50:38;;;;;;;5.20;4.70;;;22.00;97.20;;;;;;1714452;28;20794;-68
2022/06/16 05:51:29;;;;;;;4.80;4.40;;;22.00;97.20;;;;;;1713618;28;20202;-68
2022/06/16 05:52:22;;;;;;;5.00;4.60;;;22.00;97.20;;;;;;1714426;28;20198;-68
2022/06/16 05:53:13;;;;;;;4.30;4.00;;;22.10;97.20;;;;;;1714576;28;20567;-68
2022/06/16 05:54:05;;;;;;;4.00;3.67;;;22.10;97.20;;;;;;1713851;28;20265;-68
2022/06/16 05:54:56;;;;;;;6.53;4.38;;;22.10;97.20;;;;;;1714369;28;20213;-68
2022/06/16 05:55:48;;;;;;;4.47;4.13;;;22.10;97.20;;;;;;1714402;28;20292;-68
2022/06/16 05:56:39;;;;;;;4.40;4.00;;;22.10;97.20;;;;;;1714111;28;20206;-68
2022/06/16 05:57:31;;;;;;;4.20;3.80;;;22.10;97.20;;;;;;1714491;28;20233;-68
2022/06/16 05:58:22;;;;;;;4.03;3.72;;;22.10;97.20;;;;;;1714275;28;20232;-68
2022/06/16 05:59:14;;;;;;;4.20;3.80;;;22.10;97.20;;;;;;1714449;28;20285;-68
2022/06/16 06:00:06;;;;;;;4.70;4.40;;;22.10;97.20;;;;;;1714395;28;20677;-68
2022/06/16 06:00:58;;;;;;;5.80;5.10;;;22.10;97.20;;;;;;1714325;28;20264;-68
2022/06/16 06:01:49;;;;;;;4.57;3.72;;;22.20;97.20;;;;;;1714492;28;20249;-68
2022/06/16 06:02:42;;;;;;;4.60;4.20;;;22.20;97.20;;;;;;1714415;28;20288;-68
2022/06/16 06:03:33;;;;;;;4.43;4.03;;;22.20;97.20;;;;;;1714107;28;20493;-68
2022/06/16 06:04:24;;;;;;;5.30;4.80;;;22.20;97.20;;;;;;1714353;28;20292;-68
2022/06/16 06:05:15;;;;;;;4.50;4.10;;;22.20;97.20;;;;;;1714526;28;20214;-68
2022/06/16 06:06:07;;;;;;;5.03;4.53;;;22.20;97.20;;;;;;1714392;28;20236;-68
2022/06/16 06:06:58;;;;;;;5.45;4.55;;;22.20;97.20;;;;;;1713988;28;20210;-68
2022/06/16 06:17:25;;;;;;;4.63;4.22;;;22.30;97.20;;;;;;1700206;29;20195;-68
2022/06/16 06:18:20;;;;;;;4.18;3.88;;;22.40;97.20;;;;;;1700158;29;20210;-68
2022/06/16 06:19:27;;;;;;;5.03;4.45;;;22.40;97.20;;;;;;1700171;29;20579;-68
2022/06/16 06:20:18;;;;;;;5.10;4.20;;;22.40;97.20;;;;;;1711387;28;20210;-68
2022/06/16 06:21:09;;;;;;;6.33;4.20;;;22.40;97.20;;;;;;1714298;28;20662;-68
2022/06/16 06:22:05;;;;;;;4.53;4.15;;;22.40;97.20;;;;;;1714242;28;20208;-68
2022/06/16 06:22:57;;;;;;;5.13;3.95;;;22.40;97.20;;;;;;1714248;28;20201;-68
2022/06/16 06:23:47;;;;;;;4.10;3.80;;;22.40;97.20;;;;;;1714010;28;20233;-68
2022/06/16 06:24:41;;;;;;;4.20;3.90;;;22.50;97.20;;;;;;1714208;28;20288;-68
2022/06/16 06:25:32;;;;;;;4.65;4.25;;;22.50;97.20;;;;;;1714220;28;20206;-68
2022/06/16 06:26:24;;;;;;;3.67;3.40;;;22.50;97.20;;;;;;1713802;28;20288;-68
2022/06/16 06:27:17;;;;;;;4.65;4.00;;;22.50;97.20;;;;;;1712880;28;20449;-68
2022/06/16 06:28:12;;;;;;;4.75;4.35;;;22.50;97.20;;;;;;1714074;28;20343;-68
2022/06/16 06:29:03;;;;;;;4.45;4.05;;;22.60;97.20;;;;;;1714178;28;20209;-68
2022/06/16 06:29:54;;;;;;;5.45;4.50;;;22.60;97.20;;;;;;1714294;28;20201;-68
2022/06/16 06:30:45;;;;;;;5.80;4.93;;;22.60;97.20;;;;;;1714180;28;20209;-68
2022/06/16 06:31:37;;;;;;;4.40;4.10;;;22.60;97.20;;;;;;1714182;28;20207;-68
2022/06/16 06:32:28;;;;;;;5.00;4.18;;;22.60;97.20;;;;;;1714190;28;20206;-68
2022/06/16 06:33:22;;;;;;;4.05;3.75;;;22.70;97.20;;;;;;1714186;28;20202;-68
2022/06/16 06:34:12;;;;;;;4.07;3.78;;;22.70;97.20;;;;;;1714038;28;20784;-68
2022/06/16 06:35:05;;;;;;;5.93;4.00;;;22.70;97.20;;;;;;1713550;28;20633;-68
2022/06/16 06:35:57;;;;;;;4.70;4.22;;;22.70;97.20;;;;;;1714149;28;20202;-68
2022/06/16 06:36:49;;;;;;;4.78;4.38;;;22.80;97.20;;;;;;1713853;28;20194;-68
2022/06/16 06:37:40;;;;;;;4.50;4.20;;;22.80;97.20;;;;;;1714176;28;20214;-68
2022/06/16 06:38:31;;;;;;;4.27;3.90;;;22.80;97.20;;;;;;1714036;28;20233;-68
2022/06/16 06:39:22;;;;;;;4.15;3.75;;;22.90;97.20;;;;;;1714074;28;20449;-68
2022/06/16 06:40:19;;;;;;;4.23;3.93;;;22.90;97.20;;;;;;1714161;28;20298;-69
2022/06/16 06:41:10;;;;;;;3.88;3.58;;;22.90;97.20;;;;;;1714123;28;20445;-68
2022/06/16 06:42:03;;;;;;;5.23;3.93;;;22.90;97.20;;;;;;1714141;28;20194;-68
2022/06/16 06:42:54;;;;;;;4.45;4.05;;;22.90;97.20;;;;;;1712660;28;20221;-68
2022/06/16 06:43:46;;;;;;;4.87;3.87;;;23.00;97.20;;;;;;1707278;28;20325;-68
2022/06/16 06:44:37;;;;;;;4.22;3.55;;;23.00;97.20;;;;;;1707410;29;20214;-68
2022/06/16 06:45:29;;;;;;;5.70;4.00;;;23.00;97.20;;;;;;1707416;29;20237;-68
2022/06/16 06:46:20;;;;;;;3.78;3.53;;;23.00;97.20;;;;;;1707328;29;20454;-68
2022/06/16 06:47:17;;;;;;;5.83;3.60;;;23.10;97.20;;;;;;1707294;29;20277;-68
2022/06/16 06:48:08;;;;;;;4.18;3.80;;;23.10;97.20;;;;;;1707477;29;20207;-68
2022/06/16 06:49:02;;;;;;;4.20;3.90;;;23.10;97.20;;;;;;1707390;29;20281;-68
2022/06/16 06:49:53;;;;;;;4.03;3.58;;;23.10;97.20;;;;;;1707403;29;20482;-68
2022/06/16 06:50:45;;;;;;;4.32;3.95;;;23.20;97.20;;;;;;1707356;29;20198;-68
2022/06/16 06:51:36;;;;;;;3.92;3.63;;;23.20;97.20;;;;;;1707546;29;20206;-68
2022/06/16 06:52:28;;;;;;;4.17;3.87;;;23.20;97.20;;;;;;1707589;28;20293;-68
2022/06/16 06:53:19;;;;;;;4.45;4.15;;;23.20;97.20;;;;;;1707328;28;20831;-68
2022/06/16 06:54:11;;;;;;;4.40;4.00;;;23.30;97.20;;;;;;1707372;28;20664;-68
2022/06/16 06:55:01;;;;;;;3.53;3.30;;;23.30;97.20;;;;;;1707421;29;20214;-68
2022/06/16 06:55:53;;;;;;;4.10;3.80;;;23.30;97.20;;;;;;1707347;29;20222;-68
2022/06/16 06:56:45;;;;;;;4.20;3.90;;;23.30;97.20;;;;;;1707085;29;20213;-68
2022/06/16 06:57:37;;;;;;;4.82;4.10;;;23.40;97.20;;;;;;1707448;28;20579;-68
2022/06/16 06:58:31;;;;;;;4.40;4.00;;;23.40;97.20;;;;;;1707366;28;20214;-68
2022/06/16 06:59:24;;;;;;;3.60;3.30;;;23.50;97.20;;;;;;1707542;28;20202;-68
2022/06/16 07:00:17;;;;;;;4.78;4.30;;;23.50;97.20;;;;;;1707980;28;20198;-68
2022/06/16 07:01:08;;;;;;;4.88;4.47;;;23.50;97.20;;;;;;1707412;29;20261;-68
2022/06/16 07:01:59;;;;;;;4.50;4.10;;;23.60;97.20;;;;;;1707307;29;20210;-68
2022/06/16 07:02:51;;;;;;;4.30;3.90;;;23.60;97.20;;;;;;1707323;29;20207;-68
2022/06/16 07:03:42;;;;;;;4.80;4.15;;;23.70;97.20;;;;;;1707141;28;20238;-68
2022/06/16 07:04:35;;;;;;;4.50;4.13;;;23.70;97.20;;;;;;1707353;29;20234;-68
2022/06/16 07:05:26;;;;;;;5.97;3.88;;;23.70;97.20;;;;;;1707308;29;20210;-68
2022/06/16 07:06:19;;;;;;;4.20;3.80;;;23.70;97.20;;;;;;1707463;28;20681;-68
2022/06/16 07:07:12;;;;;;;5.07;3.72;;;23.70;97.20;;;;;;1707087;29;20203;-68
2022/06/16 07:08:04;;;;;;;5.47;3.90;;;23.80;97.20;;;;;;1707244;29;20584;-69
2022/06/16 07:08:55;;;;;;;4.35;3.95;;;23.80;97.20;;;;;;1707400;28;20218;-68
2022/06/16 07:09:46;;;;;;;3.90;3.60;;;23.90;97.20;;;;;;1707353;29;20199;-68
2022/06/16 07:10:38;;;;;;;4.35;4.05;;;23.90;97.20;;;;;;1709196;28;20214;-69
2022/06/16 07:11:30;;;;;;;4.57;4.13;;;23.90;97.20;;;;;;1713615;28;20567;-69
2022/06/16 07:12:21;;;;;;;3.90;3.60;;;24.00;97.20;;;;;;1713667;28;20210;-68
2022/06/16 07:13:13;;;;;;;4.00;3.70;;;24.00;97.20;;;;;;1713647;28;20289;-69
2022/06/16 07:14:04;;;;;;;4.78;4.25;;;24.00;97.20;;;;;;1713452;28;20580;-68
2022/06/16 07:14:55;;;;;;;4.20;3.90;;;24.10;97.20;;;;;;1713549;28;20298;-69
2022/06/16 07:15:46;;;;;;;4.25;3.78;;;24.10;97.20;;;;;;1712512;28;20202;-68
2022/06/16 07:16:38;;;;;;;4.40;4.00;;;24.10;97.20;;;;;;1713295;28;20190;-68
2022/06/16 07:17:29;;;;;;;5.23;3.90;;;24.10;97.20;;;;;;1713534;28;20807;-68
2022/06/16 07:18:21;;;;;;;3.97;3.50;;;24.10;97.20;;;;;;1713408;28;20888;-70
2022/06/16 07:19:13;;;;;;;4.20;3.90;;;24.20;97.20;;;;;;1713736;28;20206;-69
2022/06/16 07:20:06;;;;;;;4.22;3.92;;;24.20;97.20;;;;;;1713440;28;20206;-68
2022/06/16 07:20:58;;;;;;;4.18;3.80;;;24.20;97.20;;;;;;1713510;28;20332;-68
2022/06/16 07:21:49;;;;;;;4.57;4.18;;;24.20;97.20;;;;;;1713576;28;20194;-68
2022/06/16 07:22:41;;;;;;;4.97;4.00;;;24.20;97.20;;;;;;1713420;28;20197;-68
2022/06/16 07:23:32;;;;;;;4.40;4.00;;;24.20;97.20;;;;;;1713261;28;20206;-72
2022/06/16 07:24:23;;;;;;;4.17;3.87;;;24.20;97.20;;;;;;1713617;28;20289;-68
2022/06/16 07:25:15;;;;;;;4.88;4.20;;;24.20;97.20;;;;;;1710992;28;20202;-68
2022/06/16 07:26:06;;;;;;;4.30;3.83;;;24.30;97.20;;;;;;1713615;28;20194;-68
2022/06/16 07:26:58;;;;;;;4.47;4.07;;;24.30;97.20;;;;;;1713423;28;20201;-68
2022/06/16 07:27:50;;;;;;;4.43;4.03;;;24.30;97.20;;;;;;1713409;28;20700;-68
2022/06/16 07:28:40;;;;;;;4.63;4.32;;;24.30;97.20;;;;;;1713392;28;20194;-68
2022/06/16 07:29:33;;;;;;;4.47;4.07;;;24.30;97.20;;;;;;1713479;28;20197;-68
2022/06/16 07:30:24;;;;;;;4.55;3.80;;;24.40;97.20;;;;;;1713429;28;20214;-68
2022/06/16 07:31:17;;;;;;;4.30;3.90;;;24.40;97.20;;;;;;1713511;28;20194;-68
2022/06/16 07:32:07;;;;;;;4.15;3.85;;;24.40;97.20;;;;;;1712758;28;20205;-68
2022/06/16 07:32:59;;;;;;;4.10;3.70;;;24.50;97.20;;;;;;1713511;28;20201;-68
2022/06/16 07:33:50;;;;;;;4.00;3.60;;;24.50;97.20;;;;;;1713397;28;20709;-68
2022/06/16 07:34:42;;;;;;;4.13;3.73;;;24.50;97.20;;;;;;1713453;28;20621;-68
2022/06/16 07:35:36;;;;;;;9.68;4.60;;;24.50;97.20;;;;;;1713511;28;20673;-68
2022/06/16 07:36:27;;;;;;;5.10;4.60;;;24.60;97.20;;;;;;1713593;28;20205;-68
2022/06/16 07:37:18;;;;;;;4.82;4.40;;;24.60;97.20;;;;;;1713655;28;20591;-68
2022/06/16 07:38:11;;;;;;;4.53;4.22;;;24.60;97.20;;;;;;1713483;28;20198;-68
2022/06/16 07:39:03;;;;;;;4.63;4.23;;;24.70;97.20;;;;;;1713452;28;20209;-68
2022/06/16 07:39:54;;;;;;;5.55;4.35;;;24.70;97.20;;;;;;1713377;28;20437;-68
2022/06/16 07:40:45;;;;;;;4.45;4.13;;;24.80;97.20;;;;;;1713468;28;20206;-68
2022/06/16 07:41:38;;;;;;;4.47;4.17;;;24.80;97.20;;;;;;1713432;28;20281;-68
2022/06/16 07:42:28;;;;;;;4.00;3.70;;;24.80;97.20;;;;;;1713517;28;20545;-68
2022/06/16 07:43:20;;;;;;;4.50;4.20;;;24.90;97.20;;;;;;1713485;28;20565;-68
2022/06/16 07:44:13;;;;;;;3.97;3.67;;;24.90;97.20;;;;;;1713301;28;20217;-68
2022/06/16 07:45:07;;;;;;;4.23;3.93;;;25.00;97.20;;;;;;1713417;28;20441;-68
2022/06/16 07:46:00;;;;;;;4.70;4.30;;;25.10;97.20;;;;;;1711084;28;20526;-68
2022/06/16 07:46:52;;;;;;;4.50;4.10;;;25.10;97.20;;;;;;1714503;28;20212;-68
2022/06/16 07:47:42;;;;;;;5.93;3.90;;;25.10;97.20;;;;;;1714745;28;20229;-68
2022/06/16 07:48:35;;;;;;;5.87;3.83;;;25.20;97.20;;;;;;1714673;28;20437;-68
2022/06/16 07:49:27;;;;;;;4.65;4.25;;;25.20;97.20;;;;;;1714751;28;20654;-68
2022/06/16 07:50:20;;;;;;;4.47;4.07;;;25.20;97.20;;;;;;1714748;28;20562;-68
2022/06/16 07:51:12;;;;;;;6.03;4.30;;;25.30;97.20;;;;;;1714797;28;20441;-68
2022/06/16 07:52:04;;;;;;;4.23;3.77;;;25.30;97.20;;;;;;1714757;28;20444;-68
2022/06/16 07:52:55;;;;;;;6.13;4.47;;;25.30;97.20;;;;;;1712369;28;20451;-68
2022/06/16 07:53:47;;;;;;;4.03;3.73;;;25.40;97.20;;;;;;1714595;28;20544;-68
2022/06/16 07:54:39;;;;;;;7.03;4.10;;;25.40;97.20;;;;;;1714743;28;20745;-68
2022/06/16 07:55:30;;;;;;;4.30;3.90;;;25.40;97.20;;;;;;1714752;28;20441;-68
2022/06/16 07:56:22;;;;;;;4.90;4.43;;;25.40;97.20;;;;;;1714655;28;20485;-68
2022/06/16 07:57:13;;;;;;;4.20;3.90;;;25.50;97.20;;;;;;1714347;28;20453;-68
2022/06/16 07:58:05;;;;;;;4.73;3.17;;;25.50;97.20;;;;;;1714435;28;20477;-69
2022/06/16 07:58:56;;;;;;;4.40;4.10;;;25.50;97.20;;;;;;1714703;28;20434;-68
2022/06/16 07:59:51;;;;;;;4.83;4.03;;;25.50;97.20;;;;;;1714650;28;20532;-69
2022/06/16 08:00:41;;;;;;;4.37;3.97;;;25.60;97.20;;;;;;1712290;28;20209;-68
2022/06/16 08:01:33;;;;;;;4.40;4.00;;;25.60;97.20;;;;;;1714648;28;20532;-68
2022/06/16 08:02:24;;;;;;;3.90;3.60;;;25.60;97.20;;;;;;1714029;28;20202;-68
2022/06/16 08:03:17;;;;;;;4.70;3.67;;;25.70;97.20;;;;;;1714629;28;20456;-68
2022/06/16 08:04:08;;;;;;;4.63;4.33;;;25.70;97.20;;;;;;1714398;28;20493;-69
2022/06/16 08:05:00;;;;;;;5.43;4.07;;;25.70;97.20;;;;;;1714717;28;20491;-68
2022/06/16 08:05:51;;;;;;;4.35;3.90;;;25.80;97.20;;;;;;1714664;28;20925;-68
2022/06/16 08:06:44;;;;;;;4.33;4.03;;;25.80;97.20;;;;;;1714198;28;20836;-68
2022/06/16 08:07:35;;;;;;;6.10;4.13;;;25.80;97.20;;;;;;1714647;28;20925;-68
2022/06/16 08:08:27;;;;;;;3.90;3.60;;;25.80;97.20;;;;;;1714753;28;20889;-68
2022/06/16 08:09:19;;;;;;;4.20;3.80;;;25.90;97.20;;;;;;1714583;28;20294;-68
2022/06/16 08:10:13;;;;;;;4.97;4.47;;;25.90;97.20;;;;;;1714822;28;20849;-69
2022/06/16 08:12:03;;;;;;;5.00;4.50;;;25.90;97.20;;;;;;1738090;23;20477;-70
2022/06/16 08:12:19;;;;;;;4.70;4.30;;;26.00;97.20;;;;;;1721189;28;20456;-70
2022/06/16 08:13:11;;;;;;;4.23;3.83;;;26.00;97.20;;;;;;1719002;28;20450;-70
2022/06/16 08:14:02;;;;;;;4.82;4.40;;;26.10;97.20;;;;;;1721268;28;20440;-70
2022/06/16 08:14:54;;;;;;;4.20;3.83;;;26.10;97.20;;;;;;1721380;28;20284;-70
2022/06/16 08:15:46;;;;;;;4.93;4.53;;;26.10;97.20;;;;;;1721484;28;20444;-70
2022/06/16 08:16:38;;;;;;;4.83;4.10;;;26.10;97.20;;;;;;1721325;28;20978;-70
2022/06/16 08:17:32;;;;;;;4.93;4.40;;;26.20;97.20;;;;;;1719045;28;20529;-70
2022/06/16 08:18:26;;;;;;;5.20;4.70;;;26.20;97.20;;;;;;1720619;28;20539;-70
2022/06/16 08:19:17;;;;;;;5.23;4.80;;;26.20;97.20;;;;;;1721618;28;20528;-71
2022/06/16 08:20:10;;;;;;;6.03;4.67;;;26.30;97.20;;;;;;1721483;28;20444;-71
2022/06/16 08:21:01;;;;;;;4.57;4.27;;;26.30;97.20;;;;;;1721095;28;20676;-70
2022/06/16 08:21:54;;;;;;;5.50;4.93;;;26.30;97.20;;;;;;1717561;28;20860;-70
2022/06/16 08:22:45;;;;;;;5.07;4.57;;;26.30;97.20;;;;;;1718357;28;20198;-70
2022/06/16 08:23:37;;;;;;;5.27;4.30;;;26.40;97.20;;;;;;1718864;28;20441;-70
2022/06/16 08:24:28;;;;;;;4.87;4.37;;;26.40;97.20;;;;;;1717557;28;20487;-70
2022/06/16 08:25:20;;;;;;;4.90;4.50;;;26.40;97.20;;;;;;1717674;28;20445;-70
2022/06/16 08:26:11;;;;;;;5.43;4.80;;;26.40;97.20;;;;;;1718940;28;20445;-70
2022/06/16 08:27:04;;;;;;;5.37;4.87;;;26.40;97.20;;;;;;1718185;28;20519;-71
2022/06/16 08:27:55;;;;;;;5.60;4.30;;;26.50;97.20;;;;;;1717476;28;20204;-70
2022/06/16 08:28:48;;;;;;;5.50;5.00;;;26.50;97.20;;;;;;1718609;28;20937;-70
2022/06/16 08:29:43;;;;;;;4.97;4.57;;;26.50;97.20;;;;;;1718669;28;20975;-70
2022/06/16 08:30:37;;;;;;;5.00;4.70;;;26.50;97.20;;;;;;1717548;28;20432;-70
2022/06/16 08:31:28;;;;;;;4.87;3.97;;;26.60;97.20;;;;;;1718808;28;20560;-70
2022/06/16 08:32:23;;;;;;;5.07;4.10;;;26.60;97.20;;;;;;1718689;28;20932;-70
2022/06/16 08:33:16;;;;;;;5.30;4.80;;;26.60;97.20;;;;;;1714938;28;20448;-70
2022/06/16 08:34:08;;;;;;;5.07;4.67;;;26.70;97.20;;;;;;1717816;28;20440;-70
2022/06/16 08:34:59;;;;;;;4.90;4.50;;;26.70;97.20;;;;;;1718187;28;20445;-71
2022/06/16 08:35:50;;;;;;;5.03;4.40;;;26.70;97.20;;;;;;1718100;28;20523;-70
2022/06/16 08:36:41;;;;;;;5.27;4.70;;;26.70;97.20;;;;;;1717174;28;20295;-70
2022/06/16 08:37:34;;;;;;;5.10;4.60;;;26.70;97.20;;;;;;1718541;28;20495;-70
2022/06/16 08:38:25;;;;;;;5.47;5.07;;;26.70;97.20;;;;;;1718575;28;20201;-70
2022/06/16 08:39:18;;;;;;;5.10;4.60;;;26.70;97.20;;;;;;1717456;28;20532;-70
2022/06/16 08:40:10;;;;;;;5.10;4.70;;;26.70;97.20;;;;;;1718008;28;20201;-70
2022/06/16 08:41:15;;;;;;;4.87;4.47;;;26.80;97.20;;;;;;1718692;28;20465;-71
2022/06/16 08:42:10;;;;;;;5.20;4.70;;;26.80;97.20;;;;;;1716603;28;20448;-70
2022/06/16 08:43:06;;;;;;;5.70;5.20;;;26.80;97.20;;;;;;1718860;28;20526;-70
2022/06/16 08:44:09;;;;;;;4.73;4.40;;;26.80;97.20;;;;;;1715143;28;20779;-70
2022/06/16 08:45:06;;;;;;;4.90;4.57;;;26.80;97.20;;;;;;1715606;28;20925;-71
2022/06/16 08:46:00;;;;;;;4.97;4.57;;;26.80;97.20;;;;;;1715129;28;20472;-70
2022/06/16 08:47:00;;;;;;;6.00;5.40;;;26.80;97.20;;;;;;1717999;28;20437;-71
2022/06/16 08:48:01;;;;;;;6.57;5.13;;;26.80;97.20;;;;;;1717758;28;20451;-71
2022/06/16 08:49:01;;;;;;;5.30;4.90;;;26.80;97.20;;;;;;1718537;28;20449;-71
2022/06/16 08:50:07;;;;;;;5.27;4.77;;;26.80;97.20;;;;;;1717774;28;20437;-71
2022/06/16 08:51:05;;;;;;;5.87;5.37;;;26.80;97.20;;;;;;1714834;28;20469;-71
2022/06/16 08:52:08;;;;;;;5.90;4.70;;;26.80;97.20;;;;;;1717426;28;20932;-71
2022/06/16 08:53:17;;;;;;;4.83;4.37;;;26.80;97.20;;;;;;1715412;28;20524;-71
2022/06/16 08:54:21;;;;;;;5.30;4.80;;;26.80;97.20;;;;;;1717162;28;20445;-71
2022/06/16 08:55:20;;;;;;;5.23;4.73;;;26.80;97.20;;;;;;1717648;28;20472;-71
2022/06/16 08:56:17;;;;;;;5.20;4.80;;;26.80;97.20;;;;;;1718330;28;20438;-71
2022/06/16 08:57:13;;;;;;;5.25;4.75;;;26.80;97.20;;;;;;1717965;28;20451;-71
2022/06/16 08:58:10;;;;;;;5.57;4.67;;;26.70;97.20;;;;;;1716533;28;20566;-71
2022/06/16 08:59:13;;;;;;;5.30;4.90;;;26.70;97.20;;;;;;1715677;28;20463;-70
2022/06/16 09:00:09;;;;;;;5.15;4.25;;;26.70;97.20;;;;;;1714344;28;20449;-71
2022/06/16 09:01:06;;;;;;;4.90;4.50;;;26.70;97.20;;;;;;1714014;28;20557;-70
2022/06/16 09:02:05;;;;;;;5.83;4.80;;;26.70;97.20;;;;;;1714085;28;20446;-71
2022/06/16 09:03:07;;;;;;;6.90;5.60;;;26.70;97.20;;;;;;1714766;28;20446;-71
2022/06/16 09:04:02;;;;;;;5.53;5.10;;;26.70;97.20;;;;;;1714607;28;20452;-71
2022/06/16 09:05:02;;;;;;;5.15;4.75;;;26.70;97.20;;;;;;1714015;28;20477;-71
2022/06/16 09:05:58;;;;;;;5.83;4.83;;;26.70;97.20;;;;;;1714278;28;20577;-71
2022/06/16 09:06:59;;;;;;;4.88;4.28;;;26.70;97.20;;;;;;1712736;28;20452;-70
2022/06/16 09:08:01;;;;;;;6.60;5.20;;;26.60;97.20;;;;;;1713475;28;20669;-70
2022/06/16 09:09:06;;;;;;;5.07;4.67;;;26.60;97.20;;;;;;1714762;28;20488;-71
2022/06/16 09:10:14;;;;;;;5.13;4.70;;;26.60;97.20;;;;;;1714846;28;20448;-70
2022/06/16 09:11:11;;;;;;;7.90;4.90;;;26.60;97.20;;;;;;1714587;28;20581;-70
2022/06/16 09:12:11;;;;;;;4.90;4.50;;;26.60;97.20;;;;;;1714781;28;20673;-70
2022/06/16 09:13:27;;;;;;;5.37;4.87;;;26.60;97.20;;;;;;1714812;28;20661;-71
2022/06/16 09:15:53;;;;;;;7.30;4.88;;;26.60;97.20;;;;;;1694028;29;20419;-70
2022/06/16 09:16:56;;;;;;;4.70;4.33;;;26.60;97.20;;;;;;1713227;28;20768;-70
2022/06/16 09:18:00;;;;;;;5.03;4.47;;;26.70;97.20;;;;;;1714818;28;20453;-70
2022/06/16 09:19:09;;;;;;;4.65;4.25;;;26.70;97.20;;;;;;1714654;28;20452;-71
2022/06/16 09:20:10;;;;;;;7.00;4.10;;;26.70;97.20;;;;;;1714747;28;20237;-70
2022/06/16 09:21:13;;;;;;;4.77;4.33;;;26.70;97.20;;;;;;1714654;28;20261;-70
2022/06/16 09:22:19;;;;;;;6.83;4.27;;;26.70;97.20;;;;;;1714677;28;20457;-70
2022/06/16 09:23:32;;;;;;;5.13;3.93;;;26.80;97.20;;;;;;1714704;28;20450;-70
2022/06/16 09:24:57;;;;;;;5.65;4.47;;;26.80;97.20;;;;;;1710661;28;20450;-71
2022/06/16 09:26:04;;;;;;;4.32;3.92;;;26.80;97.20;;;;;;1703742;28;20210;-71
2022/06/16 09:27:01;;;;;;;5.20;4.70;;;26.90;97.20;;;;;;1707901;28;20207;-70
2022/06/16 09:27:56;;;;;;;5.57;4.20;;;26.90;97.20;;;;;;1708029;28;20450;-71
2022/06/16 09:28:52;;;;;;;4.90;4.50;;;26.90;97.20;;;;;;1707984;28;20446;-70
2022/06/16 09:29:50;;;;;;;4.47;4.07;;;26.90;97.20;;;;;;1707921;28;20449;-71
2022/06/16 09:30:44;;;;;;;5.00;4.60;;;27.00;97.20;;;;;;1707962;28;20953;-70
2022/06/16 09:31:41;;;;;;;5.80;4.87;;;27.00;97.20;;;;;;1707947;28;20466;-70
2022/06/16 09:32:37;;;;;;;4.40;4.00;;;27.00;97.20;;;;;;1707974;28;20539;-70
2022/06/16 09:33:35;;;;;;;4.53;4.17;;;27.10;97.20;;;;;;1708030;28;20438;-71
2022/06/16 09:34:33;;;;;;;6.20;4.00;;;27.10;97.20;;;;;;1707970;28;20457;-70
2022/06/16 09:35:29;;;;;;;4.97;4.50;;;27.10;97.20;;;;;;1707958;28;20945;-70
2022/06/16 09:36:26;;;;;;;4.80;4.40;;;27.10;97.20;;;;;;1707797;28;20458;-70
2022/06/16 09:37:21;;;;;;;4.50;4.10;;;27.20;97.20;;;;;;1707586;28;20476;-70
2022/06/16 09:38:20;;;;;;;4.47;3.90;;;27.20;97.20;;;;;;1707854;28;20477;-70
2022/06/16 09:39:19;;;;;;;4.57;4.17;;;27.20;97.20;;;;;;1707938;28;20532;-70
2022/06/16 09:40:16;;;;;;;4.07;3.67;;;27.30;97.20;;;;;;1707866;28;20438;-70
2022/06/16 09:42:32;;;;;;;5.10;4.40;;;27.30;97.20;;;;;;1714423;28;20991;-70
2022/06/16 09:43:32;;;;;;;6.10;4.37;;;27.30;97.20;;;;;;1714498;28;20445;-70
2022/06/16 09:44:30;;;;;;;4.83;3.80;;;27.30;97.20;;;;;;1714587;28;20448;-70
2022/06/16 09:45:26;;;;;;;4.90;4.30;;;27.30;97.20;;;;;;1714447;28;20843;-71
2022/06/16 09:46:22;;;;;;;4.30;3.87;;;27.30;97.20;;;;;;1714412;28;20453;-70
2022/06/16 09:47:19;;;;;;;6.40;4.10;;;27.30;97.20;;;;;;1714284;28;20448;-70
2022/06/16 09:48:14;;;;;;;4.63;4.13;;;27.30;97.20;;;;;;1714513;28;20441;-70
2022/06/16 09:49:12;;;;;;;5.30;4.80;;;27.40;97.20;;;;;;1714499;28;20937;-70
2022/06/16 09:50:10;;;;;;;4.65;4.07;;;27.40;97.20;;;;;;1714457;28;20437;-71
2022/06/16 09:51:07;;;;;;;4.43;4.13;;;27.40;97.20;;;;;;1714421;28;20197;-70
2022/06/16 09:52:04;;;;;;;4.50;4.10;;;27.40;97.20;;;;;;1714506;28;20456;-70
2022/06/16 09:53:00;;;;;;;5.50;4.30;;;27.50;97.20;;;;;;1714458;28;20468;-70